sensor_id;sensor_type;location;lat;lon;timestamp;P1;durP1;ratioP1;P2;durP2;ratioP2
39266;SDS011;24967;51.154;13.812;2022-08-19T00:01:27;15.52;;;12.30;;
39266;SDS011;24967;51.154;13.812;2022-08-19T00:03:54;13.48;;;12.18;;
39266;SDS011;24967;51.154;13.812;2022-08-19T00:06:21;13.68;;;12.32;;
39266;SDS011;24967;51.154;13.812;2022-08-19T00:08:48;13.77;;;11.75;;
39266;SDS011;24967;51.154;13.812;2022-08-19T00:11:16;13.50;;;12.10;;
39266;SDS011;24967;51.154;13.812;2022-08-19T00:13:43;13.38;;;12.05;;
39266;SDS011;24967;51.154;13.812;2022-08-19T00:16:10;13.82;;;12.52;;
39266;SDS011;24967;51.154;13.812;2022-08-19T00:18:38;13.82;;;12.38;;
39266;SDS011;24967;51.154;13.812;2022-08-19T00:21:05;14.10;;;12.68;;
39266;SDS011;24967;51.154;13.812;2022-08-19T00:23:32;12.93;;;11.80;;
39266;SDS011;24967;51.154;13.812;2022-08-19T00:25:59;13.45;;;12.18;;
39266;SDS011;24967;51.154;13.812;2022-08-19T00:28:26;14.82;;;12.80;;
39266;SDS011;24967;51.154;13.812;2022-08-19T00:30:52;13.68;;;12.30;;
39266;SDS011;24967;51.154;13.812;2022-08-19T00:33:19;16.75;;;12.98;;
39266;SDS011;24967;51.154;13.812;2022-08-19T00:35:47;14.40;;;12.32;;
39266;SDS011;24967;51.154;13.812;2022-08-19T00:38:14;14.23;;;12.63;;
39266;SDS011;24967;51.154;13.812;2022-08-19T00:40:41;15.27;;;12.80;;
39266;SDS011;24967;51.154;13.812;2022-08-19T00:45:38;14.60;;;13.10;;
39266;SDS011;24967;51.154;13.812;2022-08-19T00:48:06;15.02;;;13.55;;
39266;SDS011;24967;51.154;13.812;2022-08-19T00:50:33;15.15;;;13.57;;
39266;SDS011;24967;51.154;13.812;2022-08-19T00:53:02;15.65;;;13.95;;
39266;SDS011;24967;51.154;13.812;2022-08-19T00:55:30;15.85;;;14.35;;
39266;SDS011;24967;51.154;13.812;2022-08-19T00:58:00;17.45;;;15.57;;
39266;SDS011;24967;51.154;13.812;2022-08-19T01:00:29;23.27;;;16.35;;
39266;SDS011;24967;51.154;13.812;2022-08-19T01:02:57;16.98;;;15.02;;
39266;SDS011;24967;51.154;13.812;2022-08-19T01:05:25;17.42;;;15.73;;
39266;SDS011;24967;51.154;13.812;2022-08-19T01:07:55;17.87;;;15.87;;
39266;SDS011;24967;51.154;13.812;2022-08-19T01:10:26;17.58;;;15.88;;
39266;SDS011;24967;51.154;13.812;2022-08-19T01:12:55;20.40;;;16.77;;
39266;SDS011;24967;51.154;13.812;2022-08-19T01:15:25;17.77;;;15.98;;
39266;SDS011;24967;51.154;13.812;2022-08-19T01:17:55;19.95;;;17.30;;
39266;SDS011;24967;51.154;13.812;2022-08-19T01:20:23;19.00;;;17.10;;
39266;SDS011;24967;51.154;13.812;2022-08-19T01:22:53;18.90;;;16.90;;
39266;SDS011;24967;51.154;13.812;2022-08-19T01:25:21;19.30;;;17.30;;
39266;SDS011;24967;51.154;13.812;2022-08-19T01:27:51;21.13;;;18.27;;
39266;SDS011;24967;51.154;13.812;2022-08-19T01:30:20;19.80;;;17.80;;
39266;SDS011;24967;51.154;13.812;2022-08-19T01:32:49;20.88;;;18.65;;
39266;SDS011;24967;51.154;13.812;2022-08-19T01:35:17;20.05;;;18.02;;
39266;SDS011;24967;51.154;13.812;2022-08-19T01:37:46;21.65;;;19.08;;
39266;SDS011;24967;51.154;13.812;2022-08-19T01:40:16;23.77;;;19.38;;
39266;SDS011;24967;51.154;13.812;2022-08-19T01:42:44;20.92;;;18.85;;
39266;SDS011;24967;51.154;13.812;2022-08-19T01:45:10;20.38;;;18.30;;
39266;SDS011;24967;51.154;13.812;2022-08-19T01:47:37;21.02;;;18.88;;
39266;SDS011;24967;51.154;13.812;2022-08-19T01:50:05;21.20;;;18.92;;
39266;SDS011;24967;51.154;13.812;2022-08-19T01:52:34;20.70;;;18.50;;
39266;SDS011;24967;51.154;13.812;2022-08-19T01:55:00;21.90;;;19.55;;
39266;SDS011;24967;51.154;13.812;2022-08-19T01:57:28;21.90;;;19.60;;
39266;SDS011;24967;51.154;13.812;2022-08-19T01:59:55;22.75;;;20.08;;
39266;SDS011;24967;51.154;13.812;2022-08-19T02:02:21;23.75;;;19.60;;
39266;SDS011;24967;51.154;13.812;2022-08-19T02:04:48;22.30;;;19.85;;
39266;SDS011;24967;51.154;13.812;2022-08-19T02:07:15;21.70;;;19.45;;
39266;SDS011;24967;51.154;13.812;2022-08-19T02:09:41;21.58;;;19.08;;
39266;SDS011;24967;51.154;13.812;2022-08-19T02:12:08;21.85;;;18.65;;
39266;SDS011;24967;51.154;13.812;2022-08-19T02:14:36;21.85;;;19.55;;
39266;SDS011;24967;51.154;13.812;2022-08-19T02:17:03;21.92;;;19.73;;
39266;SDS011;24967;51.154;13.812;2022-08-19T02:19:29;21.88;;;18.83;;
39266;SDS011;24967;51.154;13.812;2022-08-19T02:21:57;21.38;;;18.85;;
39266;SDS011;24967;51.154;13.812;2022-08-19T02:24:24;21.60;;;18.40;;
39266;SDS011;24967;51.154;13.812;2022-08-19T02:26:53;20.63;;;18.63;;
39266;SDS011;24967;51.154;13.812;2022-08-19T02:29:19;20.75;;;18.73;;
39266;SDS011;24967;51.154;13.812;2022-08-19T02:31:47;20.52;;;18.38;;
39266;SDS011;24967;51.154;13.812;2022-08-19T02:34:14;20.42;;;18.35;;
39266;SDS011;24967;51.154;13.812;2022-08-19T02:36:40;20.50;;;18.38;;
39266;SDS011;24967;51.154;13.812;2022-08-19T02:39:07;19.88;;;17.77;;
39266;SDS011;24967;51.154;13.812;2022-08-19T02:41:33;18.75;;;16.85;;
39266;SDS011;24967;51.154;13.812;2022-08-19T02:44:00;20.70;;;18.55;;
39266;SDS011;24967;51.154;13.812;2022-08-19T02:46:29;20.50;;;18.45;;
39266;SDS011;24967;51.154;13.812;2022-08-19T02:49:00;20.45;;;18.13;;
39266;SDS011;24967;51.154;13.812;2022-08-19T02:51:33;21.13;;;18.88;;
39266;SDS011;24967;51.154;13.812;2022-08-19T02:54:01;23.30;;;20.83;;
39266;SDS011;24967;51.154;13.812;2022-08-19T02:56:29;19.67;;;17.63;;
39266;SDS011;24967;51.154;13.812;2022-08-19T02:58:56;20.30;;;18.40;;
39266;SDS011;24967;51.154;13.812;2022-08-19T03:01:24;21.33;;;18.02;;
39266;SDS011;24967;51.154;13.812;2022-08-19T03:03:53;21.92;;;19.63;;
39266;SDS011;24967;51.154;13.812;2022-08-19T03:06:21;21.55;;;19.15;;
39266;SDS011;24967;51.154;13.812;2022-08-19T03:08:48;22.08;;;19.77;;
39266;SDS011;24967;51.154;13.812;2022-08-19T03:11:16;20.50;;;18.50;;
39266;SDS011;24967;51.154;13.812;2022-08-19T03:13:44;23.23;;;20.85;;
39266;SDS011;24967;51.154;13.812;2022-08-19T03:16:14;21.67;;;18.98;;
39266;SDS011;24967;51.154;13.812;2022-08-19T03:18:41;22.55;;;19.27;;
39266;SDS011;24967;51.154;13.812;2022-08-19T03:21:07;23.35;;;19.02;;
39266;SDS011;24967;51.154;13.812;2022-08-19T03:23:35;20.73;;;18.70;;
39266;SDS011;24967;51.154;13.812;2022-08-19T03:26:03;23.10;;;20.83;;
39266;SDS011;24967;51.154;13.812;2022-08-19T03:28:30;21.58;;;19.50;;
39266;SDS011;24967;51.154;13.812;2022-08-19T03:30:58;25.45;;;22.65;;
39266;SDS011;24967;51.154;13.812;2022-08-19T03:33:28;21.90;;;19.70;;
39266;SDS011;24967;51.154;13.812;2022-08-19T03:36:05;23.27;;;20.83;;
39266;SDS011;24967;51.154;13.812;2022-08-19T03:38:35;22.50;;;20.27;;
39266;SDS011;24967;51.154;13.812;2022-08-19T03:41:04;24.65;;;22.15;;
39266;SDS011;24967;51.154;13.812;2022-08-19T03:43:35;25.88;;;23.23;;
39266;SDS011;24967;51.154;13.812;2022-08-19T03:46:04;24.13;;;21.63;;
39266;SDS011;24967;51.154;13.812;2022-08-19T03:48:32;23.95;;;21.60;;
39266;SDS011;24967;51.154;13.812;2022-08-19T03:50:59;25.70;;;22.35;;
39266;SDS011;24967;51.154;13.812;2022-08-19T03:53:27;25.33;;;22.70;;
39266;SDS011;24967;51.154;13.812;2022-08-19T03:55:55;24.25;;;21.75;;
39266;SDS011;24967;51.154;13.812;2022-08-19T03:58:24;25.73;;;22.48;;
39266;SDS011;24967;51.154;13.812;2022-08-19T04:00:52;25.02;;;22.42;;
39266;SDS011;24967;51.154;13.812;2022-08-19T04:03:19;26.75;;;21.83;;
39266;SDS011;24967;51.154;13.812;2022-08-19T04:05:45;23.95;;;21.55;;
39266;SDS011;24967;51.154;13.812;2022-08-19T04:08:12;22.75;;;20.45;;
39266;SDS011;24967;51.154;13.812;2022-08-19T04:10:43;23.65;;;21.25;;
39266;SDS011;24967;51.154;13.812;2022-08-19T04:13:11;24.33;;;21.75;;
39266;SDS011;24967;51.154;13.812;2022-08-19T04:15:38;25.95;;;23.15;;
39266;SDS011;24967;51.154;13.812;2022-08-19T04:18:07;23.95;;;21.55;;
39266;SDS011;24967;51.154;13.812;2022-08-19T04:20:38;24.35;;;21.85;;
39266;SDS011;24967;51.154;13.812;2022-08-19T04:23:05;25.45;;;21.88;;
39266;SDS011;24967;51.154;13.812;2022-08-19T04:25:34;24.48;;;22.15;;
39266;SDS011;24967;51.154;13.812;2022-08-19T04:28:02;24.00;;;21.02;;
39266;SDS011;24967;51.154;13.812;2022-08-19T04:30:30;23.70;;;21.20;;
39266;SDS011;24967;51.154;13.812;2022-08-19T04:32:56;23.13;;;20.42;;
39266;SDS011;24967;51.154;13.812;2022-08-19T04:35:23;23.95;;;21.42;;
39266;SDS011;24967;51.154;13.812;2022-08-19T04:37:49;24.92;;;22.10;;
39266;SDS011;24967;51.154;13.812;2022-08-19T04:40:16;24.30;;;20.40;;
39266;SDS011;24967;51.154;13.812;2022-08-19T04:43:00;24.27;;;21.75;;
39266;SDS011;24967;51.154;13.812;2022-08-19T04:45:26;22.65;;;20.38;;
39266;SDS011;24967;51.154;13.812;2022-08-19T04:47:55;24.88;;;22.15;;
39266;SDS011;24967;51.154;13.812;2022-08-19T04:50:22;24.02;;;21.52;;
39266;SDS011;24967;51.154;13.812;2022-08-19T04:52:49;23.27;;;21.02;;
39266;SDS011;24967;51.154;13.812;2022-08-19T04:55:17;22.95;;;20.67;;
39266;SDS011;24967;51.154;13.812;2022-08-19T04:57:43;22.92;;;20.63;;
39266;SDS011;24967;51.154;13.812;2022-08-19T05:00:10;22.63;;;20.30;;
39266;SDS011;24967;51.154;13.812;2022-08-19T05:02:37;25.25;;;21.58;;
39266;SDS011;24967;51.154;13.812;2022-08-19T05:05:06;27.27;;;21.23;;
39266;SDS011;24967;51.154;13.812;2022-08-19T05:07:33;24.95;;;22.10;;
39266;SDS011;24967;51.154;13.812;2022-08-19T05:09:59;26.38;;;21.83;;
39266;SDS011;24967;51.154;13.812;2022-08-19T05:12:26;22.80;;;20.42;;
39266;SDS011;24967;51.154;13.812;2022-08-19T05:14:53;23.48;;;21.08;;
39266;SDS011;24967;51.154;13.812;2022-08-19T05:17:21;22.92;;;20.42;;
39266;SDS011;24967;51.154;13.812;2022-08-19T05:19:48;22.38;;;20.05;;
39266;SDS011;24967;51.154;13.812;2022-08-19T05:22:33;22.27;;;20.08;;
39266;SDS011;24967;51.154;13.812;2022-08-19T05:25:01;22.00;;;19.83;;
39266;SDS011;24967;51.154;13.812;2022-08-19T05:27:30;22.88;;;20.67;;
39266;SDS011;24967;51.154;13.812;2022-08-19T05:29:57;22.02;;;19.77;;
39266;SDS011;24967;51.154;13.812;2022-08-19T05:32:23;23.15;;;20.85;;
39266;SDS011;24967;51.154;13.812;2022-08-19T05:34:49;23.98;;;21.38;;
39266;SDS011;24967;51.154;13.812;2022-08-19T05:37:16;23.23;;;20.67;;
39266;SDS011;24967;51.154;13.812;2022-08-19T05:39:44;23.83;;;21.40;;
39266;SDS011;24967;51.154;13.812;2022-08-19T05:42:11;23.23;;;20.73;;
39266;SDS011;24967;51.154;13.812;2022-08-19T05:44:40;22.27;;;19.88;;
39266;SDS011;24967;51.154;13.812;2022-08-19T05:47:09;23.30;;;20.58;;
39266;SDS011;24967;51.154;13.812;2022-08-19T05:49:37;22.98;;;20.63;;
39266;SDS011;24967;51.154;13.812;2022-08-19T05:52:04;24.77;;;22.17;;
39266;SDS011;24967;51.154;13.812;2022-08-19T05:54:33;24.67;;;22.15;;
39266;SDS011;24967;51.154;13.812;2022-08-19T05:57:02;22.48;;;20.08;;
39266;SDS011;24967;51.154;13.812;2022-08-19T05:59:29;24.30;;;21.00;;
39266;SDS011;24967;51.154;13.812;2022-08-19T06:01:55;24.63;;;21.92;;
39266;SDS011;24967;51.154;13.812;2022-08-19T06:04:22;24.75;;;21.27;;
39266;SDS011;24967;51.154;13.812;2022-08-19T06:06:50;22.83;;;20.45;;
39266;SDS011;24967;51.154;13.812;2022-08-19T06:09:18;21.77;;;19.70;;
39266;SDS011;24967;51.154;13.812;2022-08-19T06:11:46;23.38;;;20.95;;
39266;SDS011;24967;51.154;13.812;2022-08-19T06:14:20;23.73;;;21.27;;
39266;SDS011;24967;51.154;13.812;2022-08-19T06:16:48;23.58;;;21.08;;
39266;SDS011;24967;51.154;13.812;2022-08-19T06:19:16;23.92;;;21.42;;
39266;SDS011;24967;51.154;13.812;2022-08-19T06:21:45;22.98;;;20.63;;
39266;SDS011;24967;51.154;13.812;2022-08-19T06:24:14;26.00;;;23.00;;
39266;SDS011;24967;51.154;13.812;2022-08-19T06:26:44;22.52;;;20.23;;
39266;SDS011;24967;51.154;13.812;2022-08-19T06:29:13;23.98;;;20.10;;
39266;SDS011;24967;51.154;13.812;2022-08-19T06:31:43;20.90;;;18.73;;
39266;SDS011;24967;51.154;13.812;2022-08-19T06:34:12;21.30;;;19.10;;
39266;SDS011;24967;51.154;13.812;2022-08-19T06:36:40;19.92;;;17.85;;
39266;SDS011;24967;51.154;13.812;2022-08-19T06:39:09;19.40;;;17.23;;
39266;SDS011;24967;51.154;13.812;2022-08-19T06:41:38;19.45;;;17.60;;
39266;SDS011;24967;51.154;13.812;2022-08-19T06:44:07;19.95;;;17.95;;
39266;SDS011;24967;51.154;13.812;2022-08-19T06:46:33;20.77;;;18.30;;
39266;SDS011;24967;51.154;13.812;2022-08-19T06:49:02;19.90;;;17.40;;
39266;SDS011;24967;51.154;13.812;2022-08-19T06:51:29;19.33;;;17.30;;
39266;SDS011;24967;51.154;13.812;2022-08-19T06:53:57;19.23;;;17.30;;
39266;SDS011;24967;51.154;13.812;2022-08-19T06:56:25;19.73;;;17.63;;
39266;SDS011;24967;51.154;13.812;2022-08-19T06:58:56;21.73;;;18.05;;
39266;SDS011;24967;51.154;13.812;2022-08-19T07:01:22;20.75;;;18.55;;
39266;SDS011;24967;51.154;13.812;2022-08-19T07:03:49;19.85;;;17.95;;
39266;SDS011;24967;51.154;13.812;2022-08-19T07:06:17;19.92;;;17.98;;
39266;SDS011;24967;51.154;13.812;2022-08-19T07:08:45;19.58;;;17.67;;
39266;SDS011;24967;51.154;13.812;2022-08-19T07:11:14;20.35;;;18.33;;
39266;SDS011;24967;51.154;13.812;2022-08-19T07:13:44;20.92;;;18.30;;
39266;SDS011;24967;51.154;13.812;2022-08-19T07:16:12;20.13;;;18.13;;
39266;SDS011;24967;51.154;13.812;2022-08-19T07:18:40;22.73;;;19.95;;
39266;SDS011;24967;51.154;13.812;2022-08-19T07:21:10;21.73;;;19.45;;
39266;SDS011;24967;51.154;13.812;2022-08-19T07:23:40;24.92;;;21.08;;
39266;SDS011;24967;51.154;13.812;2022-08-19T07:26:11;26.30;;;22.30;;
39266;SDS011;24967;51.154;13.812;2022-08-19T07:28:39;27.13;;;23.80;;
39266;SDS011;24967;51.154;13.812;2022-08-19T07:31:05;27.55;;;23.90;;
39266;SDS011;24967;51.154;13.812;2022-08-19T07:33:32;28.85;;;23.67;;
39266;SDS011;24967;51.154;13.812;2022-08-19T07:36:02;26.73;;;23.83;;
39266;SDS011;24967;51.154;13.812;2022-08-19T07:38:29;28.42;;;23.10;;
39266;SDS011;24967;51.154;13.812;2022-08-19T07:40:57;27.67;;;24.10;;
39266;SDS011;24967;51.154;13.812;2022-08-19T07:43:23;26.95;;;23.10;;
39266;SDS011;24967;51.154;13.812;2022-08-19T07:45:51;26.30;;;23.50;;
39266;SDS011;24967;51.154;13.812;2022-08-19T07:48:21;25.20;;;22.52;;
39266;SDS011;24967;51.154;13.812;2022-08-19T07:50:50;27.33;;;23.85;;
39266;SDS011;24967;51.154;13.812;2022-08-19T07:53:17;26.55;;;22.50;;
39266;SDS011;24967;51.154;13.812;2022-08-19T07:55:44;25.98;;;23.20;;
39266;SDS011;24967;51.154;13.812;2022-08-19T07:58:13;25.05;;;22.48;;
39266;SDS011;24967;51.154;13.812;2022-08-19T08:00:42;24.40;;;21.80;;
39266;SDS011;24967;51.154;13.812;2022-08-19T08:03:09;26.33;;;21.90;;
39266;SDS011;24967;51.154;13.812;2022-08-19T08:05:36;25.35;;;22.65;;
39266;SDS011;24967;51.154;13.812;2022-08-19T08:08:20;25.23;;;22.42;;
39266;SDS011;24967;51.154;13.812;2022-08-19T08:11:03;23.70;;;21.30;;
39266;SDS011;24967;51.154;13.812;2022-08-19T08:13:32;25.85;;;21.08;;
39266;SDS011;24967;51.154;13.812;2022-08-19T08:16:00;24.75;;;21.20;;
39266;SDS011;24967;51.154;13.812;2022-08-19T08:18:27;24.67;;;21.77;;
39266;SDS011;24967;51.154;13.812;2022-08-19T08:20:54;26.23;;;21.50;;
39266;SDS011;24967;51.154;13.812;2022-08-19T08:23:21;23.63;;;21.13;;
39266;SDS011;24967;51.154;13.812;2022-08-19T08:25:50;22.35;;;19.95;;
39266;SDS011;24967;51.154;13.812;2022-08-19T08:28:18;23.00;;;19.95;;
39266;SDS011;24967;51.154;13.812;2022-08-19T08:30:47;25.15;;;20.35;;
39266;SDS011;24967;51.154;13.812;2022-08-19T08:33:16;22.48;;;20.25;;
39266;SDS011;24967;51.154;13.812;2022-08-19T08:35:44;21.40;;;19.17;;
39266;SDS011;24967;51.154;13.812;2022-08-19T08:38:11;21.95;;;19.75;;
39266;SDS011;24967;51.154;13.812;2022-08-19T08:40:42;22.02;;;19.70;;
39266;SDS011;24967;51.154;13.812;2022-08-19T08:43:23;21.17;;;18.92;;
39266;SDS011;24967;51.154;13.812;2022-08-19T08:45:56;22.33;;;20.02;;
39266;SDS011;24967;51.154;13.812;2022-08-19T08:48:30;23.45;;;19.52;;
39266;SDS011;24967;51.154;13.812;2022-08-19T08:51:03;23.40;;;19.88;;
39266;SDS011;24967;51.154;13.812;2022-08-19T08:53:33;23.65;;;21.20;;
39266;SDS011;24967;51.154;13.812;2022-08-19T08:56:02;21.98;;;19.65;;
39266;SDS011;24967;51.154;13.812;2022-08-19T08:58:31;23.35;;;20.48;;
39266;SDS011;24967;51.154;13.812;2022-08-19T09:01:10;23.65;;;21.20;;
39266;SDS011;24967;51.154;13.812;2022-08-19T09:03:38;24.52;;;22.00;;
39266;SDS011;24967;51.154;13.812;2022-08-19T09:06:10;28.63;;;23.55;;
39266;SDS011;24967;51.154;13.812;2022-08-19T09:08:43;25.27;;;22.20;;
39266;SDS011;24967;51.154;13.812;2022-08-19T09:11:19;27.20;;;22.73;;
39266;SDS011;24967;51.154;13.812;2022-08-19T09:13:59;25.30;;;22.77;;
39266;SDS011;24967;51.154;13.812;2022-08-19T09:16:36;26.88;;;23.33;;
39266;SDS011;24967;51.154;13.812;2022-08-19T09:19:05;23.80;;;21.20;;
39266;SDS011;24967;51.154;13.812;2022-08-19T09:21:33;23.98;;;21.58;;
39266;SDS011;24967;51.154;13.812;2022-08-19T09:24:00;23.85;;;21.45;;
39266;SDS011;24967;51.154;13.812;2022-08-19T09:26:27;23.83;;;21.40;;
39266;SDS011;24967;51.154;13.812;2022-08-19T09:28:54;24.88;;;22.35;;
39266;SDS011;24967;51.154;13.812;2022-08-19T09:31:23;26.45;;;21.63;;
39266;SDS011;24967;51.154;13.812;2022-08-19T09:33:53;23.02;;;20.60;;
39266;SDS011;24967;51.154;13.812;2022-08-19T09:36:22;25.80;;;22.90;;
39266;SDS011;24967;51.154;13.812;2022-08-19T09:38:51;24.60;;;21.95;;
39266;SDS011;24967;51.154;13.812;2022-08-19T09:41:18;25.20;;;22.15;;
39266;SDS011;24967;51.154;13.812;2022-08-19T09:43:48;25.15;;;21.65;;
39266;SDS011;24967;51.154;13.812;2022-08-19T09:46:17;23.92;;;21.42;;
39266;SDS011;24967;51.154;13.812;2022-08-19T09:48:45;22.40;;;20.08;;
39266;SDS011;24967;51.154;13.812;2022-08-19T09:51:16;38.55;;;28.65;;
39266;SDS011;24967;51.154;13.812;2022-08-19T09:53:45;24.65;;;21.42;;
39266;SDS011;24967;51.154;13.812;2022-08-19T09:56:15;22.65;;;20.45;;
39266;SDS011;24967;51.154;13.812;2022-08-19T09:58:44;25.23;;;19.65;;
39266;SDS011;24967;51.154;13.812;2022-08-19T10:01:15;23.15;;;20.95;;
39266;SDS011;24967;51.154;13.812;2022-08-19T10:03:48;23.67;;;21.33;;
39266;SDS011;24967;51.154;13.812;2022-08-19T10:06:17;22.48;;;20.10;;
39266;SDS011;24967;51.154;13.812;2022-08-19T10:08:45;19.58;;;17.73;;
39266;SDS011;24967;51.154;13.812;2022-08-19T10:11:12;19.48;;;17.48;;
39266;SDS011;24967;51.154;13.812;2022-08-19T10:13:41;19.70;;;17.73;;
39266;SDS011;24967;51.154;13.812;2022-08-19T10:16:11;20.20;;;17.40;;
39266;SDS011;24967;51.154;13.812;2022-08-19T10:18:41;17.95;;;16.33;;
39266;SDS011;24967;51.154;13.812;2022-08-19T10:21:10;18.17;;;16.35;;
39266;SDS011;24967;51.154;13.812;2022-08-19T10:23:40;19.02;;;17.13;;
39266;SDS011;24967;51.154;13.812;2022-08-19T10:26:09;18.63;;;16.80;;
39266;SDS011;24967;51.154;13.812;2022-08-19T10:28:37;18.67;;;17.08;;
39266;SDS011;24967;51.154;13.812;2022-08-19T10:31:04;19.05;;;17.35;;
39266;SDS011;24967;51.154;13.812;2022-08-19T10:33:32;19.73;;;17.90;;
39266;SDS011;24967;51.154;13.812;2022-08-19T10:36:00;18.00;;;16.35;;
39266;SDS011;24967;51.154;13.812;2022-08-19T10:38:27;18.17;;;16.10;;
39266;SDS011;24967;51.154;13.812;2022-08-19T10:40:56;16.63;;;14.95;;
39266;SDS011;24967;51.154;13.812;2022-08-19T10:43:22;17.48;;;15.77;;
39266;SDS011;24967;51.154;13.812;2022-08-19T10:45:53;16.48;;;14.98;;
39266;SDS011;24967;51.154;13.812;2022-08-19T10:48:22;18.33;;;16.52;;
39266;SDS011;24967;51.154;13.812;2022-08-19T10:50:48;17.30;;;15.60;;
39266;SDS011;24967;51.154;13.812;2022-08-19T10:53:32;17.15;;;15.45;;
39266;SDS011;24967;51.154;13.812;2022-08-19T10:56:00;17.33;;;15.73;;
39266;SDS011;24967;51.154;13.812;2022-08-19T10:58:44;16.25;;;14.55;;
39266;SDS011;24967;51.154;13.812;2022-08-19T11:01:10;17.40;;;15.63;;
39266;SDS011;24967;51.154;13.812;2022-08-19T11:03:38;17.08;;;15.48;;
39266;SDS011;24967;51.154;13.812;2022-08-19T11:06:05;15.23;;;13.93;;
39266;SDS011;24967;51.154;13.812;2022-08-19T11:08:35;16.60;;;15.07;;
39266;SDS011;24967;51.154;13.812;2022-08-19T11:11:04;16.27;;;14.77;;
39266;SDS011;24967;51.154;13.812;2022-08-19T11:13:32;16.98;;;15.30;;
39266;SDS011;24967;51.154;13.812;2022-08-19T11:16:03;17.20;;;15.40;;
39266;SDS011;24967;51.154;13.812;2022-08-19T11:18:32;16.38;;;14.88;;
39266;SDS011;24967;51.154;13.812;2022-08-19T11:21:05;17.60;;;15.65;;
39266;SDS011;24967;51.154;13.812;2022-08-19T11:23:33;17.38;;;15.63;;
39266;SDS011;24967;51.154;13.812;2022-08-19T11:25:59;17.10;;;15.50;;
39266;SDS011;24967;51.154;13.812;2022-08-19T11:28:27;17.83;;;15.88;;
39266;SDS011;24967;51.154;13.812;2022-08-19T11:30:54;17.20;;;15.63;;
39266;SDS011;24967;51.154;13.812;2022-08-19T11:33:20;18.08;;;16.27;;
39266;SDS011;24967;51.154;13.812;2022-08-19T11:35:47;19.17;;;17.25;;
39266;SDS011;24967;51.154;13.812;2022-08-19T11:38:14;18.55;;;16.60;;
39266;SDS011;24967;51.154;13.812;2022-08-19T11:40:40;19.90;;;15.52;;
39266;SDS011;24967;51.154;13.812;2022-08-19T11:43:07;17.30;;;15.60;;
39266;SDS011;24967;51.154;13.812;2022-08-19T11:45:35;18.20;;;15.73;;
39266;SDS011;24967;51.154;13.812;2022-08-19T11:48:02;17.80;;;16.00;;
39266;SDS011;24967;51.154;13.812;2022-08-19T11:50:28;18.83;;;16.83;;
39266;SDS011;24967;51.154;13.812;2022-08-19T11:52:55;19.23;;;16.52;;
39266;SDS011;24967;51.154;13.812;2022-08-19T11:55:21;19.77;;;17.58;;
39266;SDS011;24967;51.154;13.812;2022-08-19T11:57:48;22.35;;;18.65;;
39266;SDS011;24967;51.154;13.812;2022-08-19T12:00:15;20.98;;;18.83;;
39266;SDS011;24967;51.154;13.812;2022-08-19T12:02:43;19.48;;;17.10;;
39266;SDS011;24967;51.154;13.812;2022-08-19T12:05:10;21.05;;;18.63;;
39266;SDS011;24967;51.154;13.812;2022-08-19T12:07:36;22.08;;;19.80;;
39266;SDS011;24967;51.154;13.812;2022-08-19T12:10:03;26.27;;;21.98;;
39266;SDS011;24967;51.154;13.812;2022-08-19T12:12:30;29.67;;;22.55;;
39266;SDS011;24967;51.154;13.812;2022-08-19T12:14:56;33.92;;;25.95;;
39266;SDS011;24967;51.154;13.812;2022-08-19T12:17:23;38.70;;;28.83;;
39266;SDS011;24967;51.154;13.812;2022-08-19T12:19:52;35.88;;;27.95;;
39266;SDS011;24967;51.154;13.812;2022-08-19T12:22:19;41.58;;;29.30;;
39266;SDS011;24967;51.154;13.812;2022-08-19T12:24:46;37.90;;;28.45;;
39266;SDS011;24967;51.154;13.812;2022-08-19T12:27:13;36.63;;;28.05;;
39266;SDS011;24967;51.154;13.812;2022-08-19T12:29:39;40.63;;;28.52;;
39266;SDS011;24967;51.154;13.812;2022-08-19T12:32:06;39.28;;;29.70;;
39266;SDS011;24967;51.154;13.812;2022-08-19T12:34:33;33.63;;;26.95;;
39266;SDS011;24967;51.154;13.812;2022-08-19T12:37:04;34.83;;;26.98;;
39266;SDS011;24967;51.154;13.812;2022-08-19T12:39:33;34.50;;;27.55;;
39266;SDS011;24967;51.154;13.812;2022-08-19T12:42:00;33.75;;;26.50;;
39266;SDS011;24967;51.154;13.812;2022-08-19T12:44:27;34.40;;;26.30;;
39266;SDS011;24967;51.154;13.812;2022-08-19T12:46:54;34.38;;;26.33;;
39266;SDS011;24967;51.154;13.812;2022-08-19T12:49:20;31.23;;;24.92;;
39266;SDS011;24967;51.154;13.812;2022-08-19T12:51:46;31.70;;;24.90;;
39266;SDS011;24967;51.154;13.812;2022-08-19T12:54:14;33.60;;;25.52;;
39266;SDS011;24967;51.154;13.812;2022-08-19T12:56:41;30.85;;;24.10;;
39266;SDS011;24967;51.154;13.812;2022-08-19T12:59:08;30.38;;;24.10;;
39266;SDS011;24967;51.154;13.812;2022-08-19T13:01:36;30.80;;;25.00;;
39266;SDS011;24967;51.154;13.812;2022-08-19T13:04:03;31.50;;;24.75;;
39266;SDS011;24967;51.154;13.812;2022-08-19T13:06:30;28.83;;;24.65;;
39266;SDS011;24967;51.154;13.812;2022-08-19T13:08:56;29.35;;;24.05;;
39266;SDS011;24967;51.154;13.812;2022-08-19T13:11:24;30.33;;;23.40;;
39266;SDS011;24967;51.154;13.812;2022-08-19T13:13:51;33.10;;;24.48;;
39266;SDS011;24967;51.154;13.812;2022-08-19T13:16:19;32.33;;;24.45;;
39266;SDS011;24967;51.154;13.812;2022-08-19T13:18:46;29.23;;;24.38;;
39266;SDS011;24967;51.154;13.812;2022-08-19T13:21:14;30.13;;;22.77;;
39266;SDS011;24967;51.154;13.812;2022-08-19T13:23:41;29.30;;;23.65;;
39266;SDS011;24967;51.154;13.812;2022-08-19T13:26:09;28.92;;;23.42;;
39266;SDS011;24967;51.154;13.812;2022-08-19T13:28:38;31.13;;;24.60;;
39266;SDS011;24967;51.154;13.812;2022-08-19T13:31:24;30.38;;;23.40;;
39266;SDS011;24967;51.154;13.812;2022-08-19T13:34:10;31.63;;;24.20;;
39266;SDS011;24967;51.154;13.812;2022-08-19T13:36:37;31.38;;;24.10;;
39266;SDS011;24967;51.154;13.812;2022-08-19T13:39:05;28.70;;;22.58;;
39266;SDS011;24967;51.154;13.812;2022-08-19T13:41:33;29.75;;;22.65;;
39266;SDS011;24967;51.154;13.812;2022-08-19T13:44:01;29.20;;;24.27;;
39266;SDS011;24967;51.154;13.812;2022-08-19T13:46:28;32.33;;;25.25;;
39266;SDS011;24967;51.154;13.812;2022-08-19T13:48:55;30.02;;;23.30;;
39266;SDS011;24967;51.154;13.812;2022-08-19T13:51:22;31.13;;;24.15;;
39266;SDS011;24967;51.154;13.812;2022-08-19T13:53:49;30.42;;;25.25;;
39266;SDS011;24967;51.154;13.812;2022-08-19T13:56:16;29.00;;;24.77;;
39266;SDS011;24967;51.154;13.812;2022-08-19T13:58:45;28.17;;;24.27;;
39266;SDS011;24967;51.154;13.812;2022-08-19T14:01:17;31.58;;;25.00;;
39266;SDS011;24967;51.154;13.812;2022-08-19T14:03:45;29.30;;;24.88;;
39266;SDS011;24967;51.154;13.812;2022-08-19T14:06:12;32.78;;;25.98;;
39266;SDS011;24967;51.154;13.812;2022-08-19T14:08:38;30.58;;;24.40;;
39266;SDS011;24967;51.154;13.812;2022-08-19T14:11:06;27.77;;;24.55;;
39266;SDS011;24967;51.154;13.812;2022-08-19T14:13:33;32.65;;;27.20;;
39266;SDS011;24967;51.154;13.812;2022-08-19T14:15:59;34.10;;;27.48;;
39266;SDS011;24967;51.154;13.812;2022-08-19T14:18:27;33.55;;;26.70;;